createdAt,value
2022-08-26T00:01:56.244Z,92.90
2022-08-26T00:04:24.606Z,93.04
2022-08-26T00:06:54.485Z,92.96
2022-08-26T00:09:22.905Z,93.17
2022-08-26T00:11:55.553Z,93.27
2022-08-26T00:14:31.033Z,93.32
2022-08-26T00:16:59.066Z,93.44
2022-08-26T00:19:29.552Z,93.46
2022-08-26T00:22:00.017Z,93.38
2022-08-26T00:24:28.263Z,93.35
2022-08-26T00:26:55.561Z,93.54
2022-08-26T00:29:22.736Z,93.70
2022-08-26T00:31:50.719Z,93.72
2022-08-26T00:34:19.639Z,93.61
2022-08-26T00:36:47.698Z,93.70
2022-08-26T00:39:16.233Z,93.48
2022-08-26T00:41:44.388Z,93.48
2022-08-26T00:44:11.668Z,93.18
2022-08-26T00:46:58.947Z,93.02
2022-08-26T00:49:42.496Z,92.85
2022-08-26T00:52:18.037Z,92.57
2022-08-26T00:54:53.163Z,92.40
2022-08-26T00:57:22.666Z,92.24
2022-08-26T01:00:02.239Z,92.26
2022-08-26T01:02:29.627Z,92.17
2022-08-26T01:05:03.440Z,92.18
2022-08-26T01:07:32.694Z,92.20
2022-08-26T01:10:08.988Z,92.09
2022-08-26T01:12:42.166Z,92.20
2022-08-26T01:15:15.028Z,92.27
2022-08-26T01:17:42.496Z,92.40
2022-08-26T01:20:37.617Z,92.66
2022-08-26T01:23:10.556Z,92.74
2022-08-26T01:25:40.899Z,92.91
2022-08-26T01:28:18.955Z,93.01
2022-08-26T01:30:47.723Z,93.09
2022-08-26T01:33:46.942Z,93.12
2022-08-26T01:36:29.055Z,93.37
2022-08-26T01:38:57.149Z,93.48
2022-08-26T01:41:36.292Z,93.59
2022-08-26T01:44:09.787Z,93.77
2022-08-26T01:46:40.621Z,94.00
2022-08-26T01:49:12.454Z,94.05
2022-08-26T01:51:43.254Z,94.24
2022-08-26T01:54:13.735Z,94.33
2022-08-26T01:56:41.370Z,94.55
2022-08-26T01:59:12.258Z,94.62
2022-08-26T02:01:39.588Z,94.82
2022-08-26T02:04:20.408Z,94.88
2022-08-26T02:06:48.950Z,95.26
2022-08-26T02:09:18.392Z,95.39
2022-08-26T02:11:51.151Z,95.48
2022-08-26T02:14:28.975Z,95.61
2022-08-26T02:17:12.517Z,95.95
2022-08-26T02:19:44.717Z,96.09
2022-08-26T02:22:20.824Z,96.31
2022-08-26T02:24:52.285Z,96.35
2022-08-26T02:27:23.829Z,96.54
2022-08-26T02:30:19.313Z,96.62
2022-08-26T02:32:49.582Z,96.84
2022-08-26T02:35:20.356Z,97.14
2022-08-26T02:37:49.352Z,97.23
2022-08-26T02:40:23.346Z,97.38
2022-08-26T02:42:53.089Z,97.53
2022-08-26T02:45:25.955Z,97.66
2022-08-26T02:47:53.291Z,97.97
2022-08-26T02:50:26.506Z,98.11
2022-08-26T02:53:01.497Z,98.22
2022-08-26T02:55:31.973Z,98.52
2022-08-26T02:58:00.800Z,98.62
2022-08-26T03:00:28.993Z,98.80
2022-08-26T03:02:57.730Z,99.04
2022-08-26T03:05:25.400Z,99.14
2022-08-26T03:07:52.438Z,99.28
2022-08-26T03:10:20.934Z,99.41
2022-08-26T03:12:48.165Z,99.62
2022-08-26T03:15:18.103Z,99.92
2022-08-26T03:17:47.674Z,100.00
2022-08-26T03:20:17.442Z,99.95
2022-08-26T03:22:44.858Z,100.00
2022-08-26T03:25:16.042Z,100.00
2022-08-26T03:27:43.245Z,100.00
2022-08-26T03:30:32.610Z,100.00
2022-08-26T03:33:01.679Z,100.00
2022-08-26T03:35:31.222Z,100.00
2022-08-26T03:37:59.791Z,100.00
2022-08-26T03:40:30.772Z,100.00
2022-08-26T03:42:58.041Z,100.00
2022-08-26T03:45:27.208Z,100.00
2022-08-26T03:48:02.830Z,100.00
2022-08-26T03:50:34.271Z,100.00
2022-08-26T03:53:12.903Z,100.00
2022-08-26T03:55:41.829Z,100.00
2022-08-26T03:58:10.442Z,100.00
2022-08-26T04:00:38.893Z,100.00
2022-08-26T04:03:06.591Z,100.00
2022-08-26T04:05:37.751Z,100.00
2022-08-26T04:08:08.312Z,100.00
2022-08-26T04:10:37.890Z,100.00
2022-08-26T04:13:05.382Z,100.00
2022-08-26T04:15:32.229Z,100.00
2022-08-26T04:18:00.789Z,100.00
2022-08-26T04:20:27.959Z,100.00
2022-08-26T04:22:55.054Z,100.00
2022-08-26T04:25:25.655Z,100.00
2022-08-26T04:27:54.489Z,100.00
2022-08-26T04:30:21.505Z,100.00
2022-08-26T04:32:49.365Z,100.00
2022-08-26T04:35:17.282Z,100.00
2022-08-26T04:37:44.363Z,100.00
2022-08-26T04:40:11.686Z,100.00
2022-08-26T04:42:38.705Z,100.00
2022-08-26T04:45:09.978Z,100.00
2022-08-26T04:47:38.347Z,100.00
2022-08-26T04:50:06.668Z,100.00
2022-08-26T04:52:36.200Z,100.00
2022-08-26T04:55:06.505Z,100.00
2022-08-26T04:57:33.720Z,100.00
2022-08-26T05:00:01.507Z,100.00
2022-08-26T05:02:36.049Z,100.00
2022-08-26T05:05:06.687Z,100.00
2022-08-26T05:07:34.770Z,100.00
2022-08-26T05:10:04.031Z,100.00
2022-08-26T05:12:35.899Z,100.00
2022-08-26T05:15:09.823Z,100.00
2022-08-26T05:17:37.701Z,100.00
2022-08-26T05:20:06.232Z,100.00
2022-08-26T05:22:34.567Z,100.00
2022-08-26T05:25:01.813Z,100.00
2022-08-26T05:27:30.399Z,100.00
2022-08-26T05:29:57.592Z,100.00
2022-08-26T05:32:25.067Z,100.00
2022-08-26T05:34:58.589Z,100.00
2022-08-26T05:37:26.003Z,100.00
2022-08-26T05:39:53.052Z,100.00
2022-08-26T05:42:20.046Z,100.00
2022-08-26T05:44:56.366Z,100.00
2022-08-26T05:47:24.015Z,100.00
2022-08-26T05:49:51.269Z,100.00
2022-08-26T05:52:19.831Z,100.00
2022-08-26T05:54:47.168Z,100.00
2022-08-26T05:57:15.371Z,100.00
2022-08-26T05:59:42.209Z,100.00
2022-08-26T06:03:20.711Z,100.00
2022-08-26T06:06:35.489Z,100.00
2022-08-26T06:09:21.022Z,100.00
2022-08-26T06:11:58.971Z,100.00
2022-08-26T06:14:30.258Z,100.00
2022-08-26T06:16:58.644Z,100.00
2022-08-26T06:19:26.048Z,100.00
2022-08-26T06:22:23.908Z,100.00
2022-08-26T06:25:10.317Z,100.00
2022-08-26T06:27:38.482Z,100.00
2022-08-26T06:30:06.815Z,100.00
2022-08-26T06:32:57.783Z,100.00
2022-08-26T06:35:26.789Z,100.00
2022-08-26T06:37:53.789Z,100.00
2022-08-26T06:40:23.203Z,100.00
2022-08-26T06:42:55.580Z,100.00
2022-08-26T06:45:23.662Z,100.00
2022-08-26T06:47:52.191Z,100.00
2022-08-26T06:50:20.633Z,100.00
2022-08-26T06:52:48.049Z,100.00
2022-08-26T06:55:15.447Z,100.00
2022-08-26T06:57:43.015Z,100.00
2022-08-26T07:00:11.540Z,100.00
2022-08-26T07:02:39.963Z,100.00
2022-08-26T07:05:07.450Z,100.00
2022-08-26T07:07:53.225Z,100.00
2022-08-26T07:10:49.136Z,100.00
2022-08-26T07:13:34.150Z,100.00
2022-08-26T07:16:07.666Z,100.00
2022-08-26T07:18:45.025Z,100.00
2022-08-26T07:21:19.806Z,100.00
2022-08-26T07:23:50.105Z,100.00
2022-08-26T07:26:26.264Z,100.00
2022-08-26T07:29:00.035Z,99.80
2022-08-26T07:31:47.449Z,99.24
2022-08-26T07:34:26.550Z,99.19
2022-08-26T07:36:59.847Z,99.39
2022-08-26T07:39:34.219Z,98.82
2022-08-26T07:42:13.621Z,97.59
2022-08-26T07:44:43.963Z,96.77
2022-08-26T07:47:25.468Z,95.89
2022-08-26T07:49:56.824Z,95.26
2022-08-26T07:52:44.784Z,94.40
2022-08-26T07:56:03.580Z,93.63
2022-08-26T07:58:45.748Z,92.28
2022-08-26T08:01:33.105Z,91.26
2022-08-26T08:04:05.810Z,90.48
2022-08-26T08:07:00.918Z,89.75
2022-08-26T08:09:37.387Z,89.76
2022-08-26T08:12:21.421Z,89.17
2022-08-26T08:15:09.119Z,87.94
2022-08-26T08:17:39.909Z,88.04
2022-08-26T08:20:14.785Z,87.91
2022-08-26T08:23:04.153Z,86.91
2022-08-26T08:25:43.897Z,86.52
2022-08-26T08:28:17.809Z,86.44
2022-08-26T08:30:50.493Z,85.38
2022-08-26T08:33:23.880Z,84.78
2022-08-26T08:35:57.068Z,84.52
2022-08-26T08:38:25.103Z,84.40
2022-08-26T08:40:59.049Z,83.98
2022-08-26T08:43:27.232Z,83.80
2022-08-26T08:46:16.885Z,82.96
2022-08-26T08:49:07.923Z,81.35
2022-08-26T08:52:12.519Z,80.65
2022-08-26T08:54:40.011Z,80.09
2022-08-26T08:57:28.626Z,79.57
2022-08-26T09:00:11.155Z,79.91
2022-08-26T09:02:53.103Z,80.15
2022-08-26T09:05:39.878Z,79.39
2022-08-26T09:08:19.723Z,78.74
2022-08-26T09:10:53.989Z,78.42
2022-08-26T09:13:27.375Z,77.85
2022-08-26T09:16:10.066Z,76.99
2022-08-26T09:19:14.382Z,74.29
2022-08-26T09:22:06.999Z,74.63
2022-08-26T09:24:41.756Z,74.81
2022-08-26T09:27:44.001Z,74.25
2022-08-26T09:30:23.163Z,73.23
2022-08-26T09:33:10.365Z,72.62
2022-08-26T09:35:46.979Z,71.23
2022-08-26T09:38:28.028Z,70.41
2022-08-26T09:41:05.272Z,69.99
2022-08-26T09:43:41.453Z,69.69
2022-08-26T09:46:36.335Z,68.52
2022-08-26T09:49:46.424Z,68.97
2022-08-26T09:52:35.326Z,69.44
2022-08-26T09:55:26.888Z,68.61
2022-08-26T09:57:55.508Z,68.37
2022-08-26T10:00:27.421Z,68.36
2022-08-26T10:03:08.142Z,68.24
2022-08-26T10:05:43.235Z,68.12
2022-08-26T10:08:23.152Z,67.34
2022-08-26T10:10:53.104Z,66.48
2022-08-26T10:13:29.542Z,65.28
2022-08-26T10:16:08.179Z,64.44
2022-08-26T10:19:05.839Z,64.67
2022-08-26T10:21:59.904Z,63.48
2022-08-26T10:24:37.451Z,64.01
2022-08-26T10:27:27.558Z,62.95
2022-08-26T10:30:18.362Z,62.33
2022-08-26T10:33:09.737Z,61.44
2022-08-26T10:36:00.576Z,62.43
2022-08-26T10:38:51.020Z,61.96
2022-08-26T10:41:41.400Z,61.17
2022-08-26T10:44:14.841Z,59.17
2022-08-26T10:47:06.273Z,58.56
2022-08-26T10:49:42.412Z,58.23
2022-08-26T10:52:48.607Z,57.78
2022-08-26T10:55:44.130Z,56.97
2022-08-26T10:58:44.764Z,57.03
2022-08-26T11:01:41.269Z,56.35
2022-08-26T11:05:10.772Z,52.85
2022-08-26T11:07:45.903Z,53.28
2022-08-26T11:10:16.164Z,53.75
2022-08-26T11:12:44.899Z,52.39
2022-08-26T11:15:33.540Z,52.76
2022-08-26T11:18:08.424Z,51.81
2022-08-26T11:20:42.458Z,50.98
2022-08-26T11:23:21.970Z,51.28
2022-08-26T11:26:01.133Z,51.58
2022-08-26T11:28:36.012Z,52.03
2022-08-26T11:31:07.124Z,50.95
2022-08-26T11:33:51.007Z,51.47
2022-08-26T11:36:37.211Z,51.24
2022-08-26T11:39:19.903Z,50.59
2022-08-26T11:41:52.868Z,49.63
2022-08-26T11:44:28.377Z,48.00
2022-08-26T11:47:02.776Z,48.18
2022-08-26T11:49:32.463Z,48.06
2022-08-26T11:52:21.947Z,47.92
2022-08-26T11:55:16.243Z,47.48
2022-08-26T11:57:51.064Z,46.67
2022-08-26T12:00:27.048Z,46.90
2022-08-26T12:02:55.147Z,46.65
2022-08-26T12:05:29.572Z,46.57
2022-08-26T12:08:08.731Z,45.02
2022-08-26T12:10:36.740Z,44.76
2022-08-26T12:13:05.844Z,44.66
2022-08-26T12:15:35.300Z,44.59
2022-08-26T12:18:28.977Z,43.47
2022-08-26T12:21:10.504Z,42.95
2022-08-26T12:23:46.894Z,41.74
2022-08-26T12:26:37.598Z,41.39
2022-08-26T12:29:09.429Z,41.91
2022-08-26T12:31:47.429Z,42.06
2022-08-26T12:34:18.059Z,41.71
2022-08-26T12:36:53.625Z,41.23
2022-08-26T12:39:36.608Z,41.50
2022-08-26T12:42:21.295Z,40.57
2022-08-26T12:45:06.395Z,40.58
2022-08-26T12:47:44.009Z,40.92
2022-08-26T12:50:32.810Z,41.91
2022-08-26T12:53:05.201Z,41.70
2022-08-26T12:55:42.470Z,41.79
2022-08-26T12:58:21.152Z,41.76
2022-08-26T13:01:04.644Z,42.63
2022-08-26T13:03:44.368Z,43.32
2022-08-26T13:06:33.718Z,43.67
2022-08-26T13:09:24.730Z,44.69
2022-08-26T13:12:07.975Z,44.84
2022-08-26T13:14:54.599Z,45.11
2022-08-26T13:17:37.726Z,44.51
2022-08-26T13:20:12.989Z,44.88
2022-08-26T13:22:44.800Z,45.62
2022-08-26T13:25:30.100Z,45.64
2022-08-26T13:28:08.000Z,45.40
2022-08-26T13:30:51.433Z,44.99
2022-08-26T13:33:28.466Z,44.32
2022-08-26T13:36:12.043Z,44.29
2022-08-26T13:38:52.085Z,44.04
2022-08-26T13:41:28.927Z,43.88
2022-08-26T13:44:06.542Z,43.84
2022-08-26T13:46:43.018Z,43.39
2022-08-26T13:49:19.601Z,42.83
2022-08-26T13:51:59.025Z,42.34
2022-08-26T13:54:35.957Z,42.00
2022-08-26T13:57:16.012Z,40.44
2022-08-26T13:59:48.500Z,39.87
2022-08-26T14:02:24.658Z,40.37
2022-08-26T14:04:58.202Z,40.72
2022-08-26T14:07:33.133Z,40.59
2022-08-26T14:10:04.383Z,40.45
2022-08-26T14:12:44.660Z,40.34
2022-08-26T14:15:27.505Z,41.27
2022-08-26T14:18:15.636Z,40.59
2022-08-26T14:21:02.223Z,39.92
2022-08-26T14:23:38.591Z,39.26
2022-08-26T14:26:08.072Z,39.63
2022-08-26T14:28:38.601Z,39.82
2022-08-26T14:31:16.716Z,39.59
2022-08-26T14:34:30.040Z,39.78
2022-08-26T14:37:07.375Z,39.92
2022-08-26T14:39:50.627Z,39.82
2022-08-26T14:42:27.705Z,38.94
2022-08-26T14:45:28.016Z,38.96
2022-08-26T14:48:20.281Z,38.86
2022-08-26T14:51:11.115Z,38.75
2022-08-26T14:54:17.472Z,38.90
2022-08-26T14:56:53.706Z,38.38
2022-08-26T14:59:35.578Z,38.26
2022-08-26T15:02:22.225Z,37.50
2022-08-26T15:05:15.757Z,37.13
2022-08-26T15:07:50.746Z,37.20
2022-08-26T15:10:26.714Z,36.72
2022-08-26T15:13:00.040Z,36.94
2022-08-26T15:16:02.827Z,36.80
2022-08-26T15:18:37.301Z,37.07
2022-08-26T15:21:11.668Z,36.86
2022-08-26T15:23:41.712Z,36.83
2022-08-26T15:26:29.514Z,36.98
2022-08-26T15:28:59.860Z,37.63
2022-08-26T15:31:36.243Z,37.85
2022-08-26T15:34:12.096Z,37.60
2022-08-26T15:36:45.892Z,37.77
2022-08-26T15:39:21.504Z,38.02
2022-08-26T15:42:01.443Z,38.08
2022-08-26T15:44:46.863Z,37.93
2022-08-26T15:47:55.923Z,38.17
2022-08-26T15:50:22.241Z,38.07
2022-08-26T15:52:53.367Z,38.37
2022-08-26T15:55:23.008Z,38.50
2022-08-26T15:57:53.980Z,38.76
2022-08-26T16:00:22.514Z,38.94
2022-08-26T16:02:54.794Z,38.76
2022-08-26T16:05:53.423Z,39.11
2022-08-26T16:08:39.031Z,39.06
2022-08-26T16:11:13.050Z,38.82
2022-08-26T16:13:51.101Z,38.87
2022-08-26T16:16:26.821Z,39.19
2022-08-26T16:19:09.213Z,39.29
2022-08-26T16:21:41.840Z,39.40
2022-08-26T16:24:33.866Z,39.72
2022-08-26T16:27:08.159Z,39.81
2022-08-26T16:29:45.407Z,40.23
2022-08-26T16:32:12.201Z,40.26
2022-08-26T16:34:46.928Z,40.29
2022-08-26T16:37:23.049Z,40.69
2022-08-26T16:40:22.475Z,40.95
2022-08-26T16:42:55.204Z,40.94
2022-08-26T16:45:27.179Z,41.36
2022-08-26T16:48:08.362Z,42.17
2022-08-26T16:50:41.852Z,43.32
2022-08-26T16:53:21.805Z,44.02
2022-08-26T16:55:51.600Z,45.20
2022-08-26T16:58:21.987Z,46.06
2022-08-26T17:00:49.245Z,46.97
2022-08-26T17:03:25.023Z,47.39
2022-08-26T17:05:52.106Z,47.90
2022-08-26T17:08:27.461Z,48.22
2022-08-26T17:11:00.629Z,48.93
2022-08-26T17:13:35.048Z,49.28
2022-08-26T17:16:06.906Z,49.48
2022-08-26T17:18:34.586Z,49.97
2022-08-26T17:21:11.411Z,50.42
2022-08-26T17:23:40.999Z,51.36
2022-08-26T17:26:08.779Z,52.18
2022-08-26T17:28:36.089Z,52.80
2022-08-26T17:31:05.082Z,53.45
2022-08-26T17:33:46.697Z,53.79
2022-08-26T17:36:20.123Z,53.99
2022-08-26T17:38:48.346Z,54.07
2022-08-26T17:41:16.903Z,53.88
2022-08-26T17:43:44.157Z,54.07
2022-08-26T17:46:17.142Z,54.28
2022-08-26T17:48:47.941Z,54.62
2022-08-26T17:51:18.692Z,55.05
2022-08-26T17:53:47.921Z,55.61
2022-08-26T17:56:35.422Z,56.25
2022-08-26T17:59:37.066Z,55.87
2022-08-26T18:02:05.882Z,55.54
2022-08-26T18:04:43.744Z,55.63
2022-08-26T18:07:15.322Z,56.00
2022-08-26T18:10:00.900Z,56.16
2022-08-26T18:12:28.803Z,56.60
2022-08-26T18:15:04.875Z,57.24
2022-08-26T18:17:55.743Z,57.95
2022-08-26T18:20:34.045Z,58.38
2022-08-26T18:23:01.213Z,58.93
2022-08-26T18:25:38.702Z,59.50
2022-08-26T18:28:09.408Z,60.16
2022-08-26T18:30:36.841Z,60.24
2022-08-26T18:33:04.060Z,60.58
2022-08-26T18:35:31.965Z,61.10
2022-08-26T18:38:01.413Z,61.14
2022-08-26T18:40:43.609Z,61.73
2022-08-26T18:43:45.165Z,61.97
2022-08-26T18:46:13.485Z,62.43
2022-08-26T18:48:50.842Z,62.91
2022-08-26T18:51:26.384Z,63.61
2022-08-26T18:53:56.059Z,63.97
2022-08-26T18:56:23.269Z,64.49
2022-08-26T18:58:54.188Z,64.68
2022-08-26T19:01:25.407Z,65.16
2022-08-26T19:03:56.160Z,65.27
2022-08-26T19:06:25.190Z,65.82
2022-08-26T19:08:53.337Z,66.14
2022-08-26T19:11:31.642Z,66.11
2022-08-26T19:14:08.672Z,66.45
2022-08-26T19:16:39.327Z,66.73
2022-08-26T19:19:06.970Z,67.05
2022-08-26T19:21:38.062Z,67.11
2022-08-26T19:24:15.275Z,67.23
2022-08-26T19:26:49.051Z,67.60
2022-08-26T19:29:22.534Z,67.82
2022-08-26T19:31:53.090Z,67.86
2022-08-26T19:34:21.053Z,68.04
2022-08-26T19:36:49.284Z,68.26
2022-08-26T19:39:16.746Z,68.58
2022-08-26T19:41:44.022Z,68.62
2022-08-26T19:44:34.698Z,68.77
2022-08-26T19:47:03.295Z,69.03
2022-08-26T19:49:31.484Z,69.13
2022-08-26T19:51:59.179Z,69.48
2022-08-26T19:54:26.717Z,69.69
2022-08-26T19:56:54.208Z,69.91
2022-08-26T19:59:23.935Z,70.19
2022-08-26T20:02:00.617Z,70.49
2022-08-26T20:04:31.492Z,70.67
2022-08-26T20:07:20.508Z,70.77
2022-08-26T20:09:48.901Z,70.87
2022-08-26T20:12:19.003Z,70.98
2022-08-26T20:14:53.620Z,71.12
2022-08-26T20:17:21.715Z,71.23
2022-08-26T20:20:26.922Z,71.22
2022-08-26T20:23:04.848Z,71.32
2022-08-26T20:25:33.980Z,71.25
2022-08-26T20:28:04.952Z,71.92
2022-08-26T20:30:35.000Z,71.93
2022-08-26T20:33:02.393Z,71.76
2022-08-26T20:35:29.620Z,71.92
2022-08-26T20:38:00.135Z,72.03
2022-08-26T20:40:50.398Z,72.12
2022-08-26T20:43:26.781Z,72.06
2022-08-26T20:45:54.075Z,72.26
2022-08-26T20:48:24.363Z,72.25
2022-08-26T20:51:07.659Z,72.05
2022-08-26T20:53:35.426Z,71.98
2022-08-26T20:56:24.597Z,72.02
2022-08-26T20:59:02.683Z,71.93
2022-08-26T21:01:34.238Z,71.96
2022-08-26T21:04:08.226Z,71.73
2022-08-26T21:06:36.206Z,71.70
2022-08-26T21:09:14.701Z,71.78
2022-08-26T21:11:52.084Z,71.80
2022-08-26T21:14:20.271Z,71.85
2022-08-26T21:16:48.071Z,72.12
2022-08-26T21:19:18.034Z,72.18
2022-08-26T21:21:56.381Z,72.34
2022-08-26T21:24:26.723Z,72.52
2022-08-26T21:26:56.988Z,72.64
2022-08-26T21:29:34.575Z,72.73
2022-08-26T21:32:08.153Z,72.96
2022-08-26T21:35:26.269Z,73.13
2022-08-26T21:38:36.036Z,73.59
2022-08-26T21:42:20.786Z,74.08
2022-08-26T21:45:25.805Z,74.25
2022-08-26T21:48:39.690Z,74.47
2022-08-26T21:56:02.215Z,75.09
2022-08-26T21:58:58.292Z,75.16
2022-08-26T22:01:51.802Z,75.52
2022-08-26T22:05:11.200Z,75.64
2022-08-26T22:07:49.687Z,76.01
2022-08-26T22:10:59.890Z,76.44
2022-08-26T22:17:00.083Z,76.66
2022-08-26T22:20:33.711Z,76.86
2022-08-26T22:23:08.196Z,76.85
2022-08-26T22:25:44.279Z,77.01
2022-08-26T22:28:16.677Z,77.26
2022-08-26T22:30:45.390Z,77.40
2022-08-26T22:33:27.342Z,77.46
2022-08-26T22:36:14.316Z,77.60
2022-08-26T22:38:51.388Z,77.71
2022-08-26T22:41:20.137Z,77.90
2022-08-26T22:43:47.983Z,78.07
2022-08-26T22:46:38.535Z,78.45
2022-08-26T22:49:24.603Z,78.38
2022-08-26T22:52:30.473Z,78.60
2022-08-26T22:55:18.877Z,79.19
2022-08-26T22:57:59.162Z,79.42
2022-08-26T23:00:32.296Z,79.28
2022-08-26T23:03:37.406Z,78.87
2022-08-26T23:06:24.907Z,78.67
2022-08-26T23:09:12.899Z,78.59
2022-08-26T23:11:50.254Z,78.45
2022-08-26T23:14:39.538Z,78.46
2022-08-26T23:17:14.124Z,78.43
2022-08-26T23:19:45.512Z,78.49
2022-08-26T23:22:30.998Z,78.35
2022-08-26T23:25:12.647Z,78.58
2022-08-26T23:27:46.147Z,78.68
2022-08-26T23:30:26.166Z,78.61
2022-08-26T23:32:54.337Z,78.91
2022-08-26T23:35:24.514Z,79.04
2022-08-26T23:37:54.500Z,79.01
2022-08-26T23:40:36.410Z,79.40
2022-08-26T23:43:30.228Z,79.65
2022-08-26T23:46:03.354Z,80.00
2022-08-26T23:48:43.703Z,80.26
2022-08-26T23:51:31.531Z,80.33
2022-08-26T23:53:59.065Z,80.50
2022-08-26T23:56:27.266Z,80.75
2022-08-26T23:58:57.937Z,80.98
